createdAt,value
2022-10-03T00:00:03.651Z,9.88
2022-10-03T00:01:03.821Z,9.88
2022-10-03T00:02:03.954Z,9.88
2022-10-03T00:03:03.947Z,9.88
2022-10-03T00:04:03.906Z,9.88
2022-10-03T00:05:03.901Z,9.88
2022-10-03T00:06:03.898Z,9.81
2022-10-03T00:07:03.984Z,9.81
2022-10-03T00:08:03.976Z,9.81
2022-10-03T00:09:04.063Z,9.81
2022-10-03T00:10:04.328Z,9.81
2022-10-03T00:11:03.597Z,9.75
2022-10-03T00:12:03.594Z,9.75
2022-10-03T00:13:03.508Z,9.75
2022-10-03T00:14:03.668Z,9.75
2022-10-03T00:15:03.744Z,9.75
2022-10-03T00:16:03.889Z,9.75
2022-10-03T00:17:03.834Z,9.75
2022-10-03T00:18:03.985Z,9.69
2022-10-03T00:19:03.921Z,9.69
2022-10-03T00:20:03.989Z,9.69
2022-10-03T00:21:04.062Z,9.69
2022-10-03T00:22:04.152Z,9.69
2022-10-03T00:23:04.224Z,9.69
2022-10-03T00:24:04.303Z,9.69
2022-10-03T00:25:04.150Z,9.62
2022-10-03T00:26:04.228Z,9.62
2022-10-03T00:27:04.263Z,9.62
2022-10-03T00:28:04.428Z,9.62
2022-10-03T00:29:04.427Z,9.62
2022-10-03T00:30:04.384Z,9.62
2022-10-03T00:31:04.614Z,9.62
2022-10-03T00:32:04.384Z,9.62
2022-10-03T00:33:04.390Z,9.62
2022-10-03T00:34:04.315Z,9.56
2022-10-03T00:35:04.478Z,9.62
2022-10-03T00:36:03.509Z,9.56
2022-10-03T00:37:03.591Z,9.62
2022-10-03T00:38:03.502Z,9.56
2022-10-03T00:39:04.142Z,9.56
2022-10-03T00:40:04.149Z,9.56
2022-10-03T00:41:04.155Z,9.56
2022-10-03T00:42:04.111Z,9.56
2022-10-03T00:43:04.230Z,9.62
2022-10-03T00:44:04.147Z,9.56
2022-10-03T00:45:04.221Z,9.56
2022-10-03T00:46:04.394Z,9.56
2022-10-03T00:47:04.350Z,9.62
2022-10-03T00:48:04.398Z,9.62
2022-10-03T00:49:04.464Z,9.56
2022-10-03T00:50:04.454Z,9.56
2022-10-03T00:51:04.375Z,9.56
2022-10-03T00:52:04.461Z,9.56
2022-10-03T00:53:03.501Z,9.56
2022-10-03T00:54:03.515Z,9.56
2022-10-03T00:55:03.415Z,9.56
2022-10-03T00:56:03.574Z,9.56
2022-10-03T00:57:03.656Z,9.56
2022-10-03T00:58:03.660Z,9.50
2022-10-03T00:59:03.706Z,9.50
2022-10-03T01:00:03.675Z,9.50
2022-10-03T01:01:03.838Z,9.50
2022-10-03T01:02:03.969Z,9.50
2022-10-03T01:03:03.900Z,9.50
2022-10-03T01:04:04.072Z,9.50
2022-10-03T01:05:04.395Z,9.44
2022-10-03T01:06:04.383Z,9.44
2022-10-03T01:07:04.384Z,9.44
2022-10-03T01:08:04.542Z,9.44
2022-10-03T01:09:03.506Z,9.44
2022-10-03T01:10:03.507Z,9.44
2022-10-03T01:11:03.499Z,9.44
2022-10-03T01:12:03.592Z,9.44
2022-10-03T01:13:03.508Z,9.44
2022-10-03T01:14:03.663Z,9.44
2022-10-03T01:15:03.825Z,9.50
2022-10-03T01:16:03.994Z,9.50
2022-10-03T01:17:03.812Z,9.50
2022-10-03T01:18:03.905Z,9.50
2022-10-03T01:19:03.926Z,9.50
2022-10-03T01:20:04.141Z,9.50
2022-10-03T01:21:04.059Z,9.56
2022-10-03T01:22:04.145Z,9.56
2022-10-03T01:23:04.248Z,9.56
2022-10-03T01:24:04.148Z,9.56
2022-10-03T01:25:04.304Z,9.56
2022-10-03T01:26:04.299Z,9.56
2022-10-03T01:27:04.378Z,9.56
2022-10-03T01:28:03.550Z,9.56
2022-10-03T01:29:03.509Z,9.62
2022-10-03T01:30:03.671Z,9.62
2022-10-03T01:31:03.688Z,9.62
2022-10-03T01:32:03.760Z,9.62
2022-10-03T01:33:03.825Z,9.62
2022-10-03T01:34:03.906Z,9.62
2022-10-03T01:35:03.908Z,9.69
2022-10-03T01:36:04.308Z,9.69
2022-10-03T01:37:04.456Z,9.69
2022-10-03T01:38:04.468Z,9.69
2022-10-03T01:39:03.500Z,9.69
2022-10-03T01:40:03.507Z,9.69
2022-10-03T01:41:03.508Z,9.69
2022-10-03T01:42:03.677Z,9.69
2022-10-03T01:43:03.665Z,9.69
2022-10-03T01:44:03.746Z,9.69
2022-10-03T01:45:03.819Z,9.69
2022-10-03T01:46:03.985Z,9.69
2022-10-03T01:47:03.907Z,9.69
2022-10-03T01:48:04.056Z,9.69
2022-10-03T01:49:03.979Z,9.69
2022-10-03T01:50:04.068Z,9.69
2022-10-03T01:51:04.071Z,9.69
2022-10-03T01:52:04.086Z,9.69
2022-10-03T01:53:04.072Z,9.69
2022-10-03T01:54:04.168Z,9.69
2022-10-03T01:55:04.384Z,9.75
2022-10-03T01:56:04.393Z,9.75
2022-10-03T01:57:04.310Z,9.75
2022-10-03T01:58:04.469Z,9.75
2022-10-03T01:59:04.480Z,9.75
2022-10-03T02:00:04.491Z,9.75
2022-10-03T02:01:04.422Z,9.75
2022-10-03T02:02:04.516Z,9.75
2022-10-03T02:03:04.467Z,9.75
2022-10-03T02:04:03.501Z,9.75
2022-10-03T02:05:03.583Z,9.75
2022-10-03T02:06:03.583Z,9.75
2022-10-03T02:07:03.750Z,9.75
2022-10-03T02:08:03.661Z,9.81
2022-10-03T02:09:03.825Z,9.81
2022-10-03T02:10:03.835Z,9.81
2022-10-03T02:11:03.840Z,9.81
2022-10-03T02:12:03.910Z,9.81
2022-10-03T02:13:03.587Z,9.88
2022-10-03T02:14:03.751Z,9.88
2022-10-03T02:15:03.779Z,9.88
2022-10-03T02:16:03.875Z,9.88
2022-10-03T02:17:03.907Z,9.88
2022-10-03T02:18:03.997Z,9.88
2022-10-03T02:19:03.915Z,9.88
2022-10-03T02:20:03.995Z,9.94
2022-10-03T02:21:03.904Z,9.94
2022-10-03T02:22:03.980Z,9.94
2022-10-03T02:23:04.141Z,9.94
2022-10-03T02:24:04.309Z,10.00
2022-10-03T02:25:04.398Z,10.00
2022-10-03T02:26:04.470Z,10.00
2022-10-03T02:27:04.394Z,10.00
2022-10-03T02:28:04.472Z,10.00
2022-10-03T02:29:03.586Z,10.00
2022-10-03T02:30:03.658Z,10.00
2022-10-03T02:31:03.696Z,10.00
2022-10-03T02:32:03.821Z,10.06
2022-10-03T02:33:03.767Z,10.06
2022-10-03T02:34:03.850Z,10.06
2022-10-03T02:35:03.827Z,10.06
2022-10-03T02:36:03.901Z,10.06
2022-10-03T02:37:03.982Z,10.12
2022-10-03T02:38:04.144Z,10.12
2022-10-03T02:39:04.140Z,10.12
2022-10-03T02:40:04.236Z,10.12
2022-10-03T02:41:04.220Z,10.12
2022-10-03T02:42:04.219Z,10.19
2022-10-03T02:43:04.306Z,10.19
2022-10-03T02:44:04.382Z,10.19
2022-10-03T02:45:04.375Z,10.19
2022-10-03T02:46:04.547Z,10.25
2022-10-03T02:47:03.587Z,10.25
2022-10-03T02:48:27.364Z,10.25
2022-10-03T02:49:03.672Z,10.25
2022-10-03T02:50:03.914Z,10.25
2022-10-03T02:51:03.907Z,10.25
2022-10-03T02:52:03.823Z,10.25
2022-10-03T02:53:03.914Z,10.31
2022-10-03T02:54:03.821Z,10.31
2022-10-03T02:55:03.981Z,10.31
2022-10-03T02:56:03.979Z,10.31
2022-10-03T02:57:03.593Z,10.31
2022-10-03T02:58:03.505Z,10.31
2022-10-03T02:59:03.577Z,10.31
2022-10-03T03:00:03.577Z,10.31
2022-10-03T03:01:03.793Z,10.31
2022-10-03T03:02:03.814Z,10.31
2022-10-03T03:03:03.744Z,10.31
2022-10-03T03:04:03.826Z,10.31
2022-10-03T03:05:03.824Z,10.31
2022-10-03T03:06:03.922Z,10.38
2022-10-03T03:07:03.981Z,10.38
2022-10-03T03:08:03.915Z,10.38
2022-10-03T03:09:03.983Z,10.38
2022-10-03T03:10:04.142Z,10.38
2022-10-03T03:11:04.227Z,10.38
2022-10-03T03:12:04.310Z,10.38
2022-10-03T03:13:04.302Z,10.38
2022-10-03T03:14:04.307Z,10.38
2022-10-03T03:15:04.302Z,10.38
2022-10-03T03:16:04.522Z,10.31
2022-10-03T03:17:04.478Z,10.31
2022-10-03T03:18:04.426Z,10.31
2022-10-03T03:19:03.539Z,10.31
2022-10-03T03:20:03.584Z,10.31
2022-10-03T03:21:03.771Z,10.31
2022-10-03T03:22:03.828Z,10.31
2022-10-03T03:23:03.916Z,10.31
2022-10-03T03:24:03.916Z,10.31
2022-10-03T03:25:03.819Z,10.25
2022-10-03T03:26:03.981Z,10.25
2022-10-03T03:27:04.074Z,10.25
2022-10-03T03:28:04.094Z,10.25
2022-10-03T03:29:03.978Z,10.25
2022-10-03T03:30:04.141Z,10.19
2022-10-03T03:31:04.147Z,10.19
2022-10-03T03:32:04.276Z,10.19
2022-10-03T03:33:05.121Z,10.19
2022-10-03T03:34:04.316Z,10.19
2022-10-03T03:35:04.388Z,10.19
2022-10-03T03:36:03.511Z,10.19
2022-10-03T03:37:03.589Z,10.12
2022-10-03T03:38:03.703Z,10.12
2022-10-03T03:39:03.671Z,10.12
2022-10-03T03:40:03.821Z,10.12
2022-10-03T03:41:03.911Z,10.12
2022-10-03T03:42:03.936Z,10.12
2022-10-03T03:43:04.072Z,10.12
2022-10-03T03:44:04.232Z,10.12
2022-10-03T03:45:04.147Z,10.12
2022-10-03T03:46:04.300Z,10.12
2022-10-03T03:47:04.305Z,10.12
2022-10-03T03:48:04.387Z,10.12
2022-10-03T03:49:04.377Z,10.12
2022-10-03T03:50:04.457Z,10.12
2022-10-03T03:51:03.501Z,10.12
2022-10-03T03:52:03.584Z,10.12
2022-10-03T03:53:03.680Z,10.12
2022-10-03T03:54:03.747Z,10.19
2022-10-03T03:55:03.770Z,10.12
2022-10-03T03:56:03.860Z,10.19
2022-10-03T03:57:03.823Z,10.19
2022-10-03T03:58:03.981Z,10.19
2022-10-03T03:59:04.058Z,10.19
2022-10-03T04:00:04.147Z,10.19
2022-10-03T04:01:04.112Z,10.19
2022-10-03T04:02:04.129Z,10.19
2022-10-03T04:03:04.162Z,10.19
2022-10-03T04:04:04.064Z,10.19
2022-10-03T04:05:04.221Z,10.25
2022-10-03T04:06:04.230Z,10.25
2022-10-03T04:07:03.739Z,10.25
2022-10-03T04:08:03.748Z,10.25
2022-10-03T04:09:03.771Z,10.25
2022-10-03T04:10:03.910Z,10.25
2022-10-03T04:11:03.910Z,10.25
2022-10-03T04:12:04.065Z,10.25
2022-10-03T04:13:03.981Z,10.25
2022-10-03T04:14:04.145Z,10.31
2022-10-03T04:15:04.220Z,10.31
2022-10-03T04:16:04.381Z,10.31
2022-10-03T04:17:04.483Z,10.31
2022-10-03T04:18:04.388Z,10.31
2022-10-03T04:19:04.545Z,10.31
2022-10-03T04:20:04.479Z,10.31
2022-10-03T04:21:04.434Z,10.31
2022-10-03T04:22:04.389Z,10.31
2022-10-03T04:23:03.505Z,10.38
2022-10-03T04:24:04.483Z,10.38
2022-10-03T04:25:03.759Z,10.38
2022-10-03T04:26:03.743Z,10.38
2022-10-03T04:27:03.819Z,10.38
2022-10-03T04:28:04.139Z,10.44
2022-10-03T04:29:04.061Z,10.44
2022-10-03T04:30:04.067Z,10.38
2022-10-03T04:31:04.229Z,10.44
2022-10-03T04:32:04.415Z,10.44
2022-10-03T04:33:04.396Z,10.44
2022-10-03T04:34:04.385Z,10.44
2022-10-03T04:35:04.386Z,10.44
2022-10-03T04:36:04.477Z,10.44
2022-10-03T04:37:03.506Z,10.44
2022-10-03T04:38:03.593Z,10.44
2022-10-03T04:39:03.510Z,10.44
2022-10-03T04:40:03.834Z,10.44
2022-10-03T04:41:04.637Z,10.50
2022-10-03T04:42:03.908Z,10.50
2022-10-03T04:43:03.830Z,10.50
2022-10-03T04:44:03.831Z,10.50
2022-10-03T04:45:03.988Z,10.50
2022-10-03T04:46:04.119Z,10.50
2022-10-03T04:47:04.064Z,10.50
2022-10-03T04:48:04.097Z,10.50
2022-10-03T04:49:04.233Z,10.50
2022-10-03T04:50:04.386Z,10.50
2022-10-03T04:51:04.470Z,10.50
2022-10-03T04:52:04.470Z,10.56
2022-10-03T04:53:03.502Z,10.56
2022-10-03T04:54:03.574Z,10.56
2022-10-03T04:55:03.705Z,10.56
2022-10-03T04:56:03.680Z,10.56
2022-10-03T04:57:03.829Z,10.56
2022-10-03T04:58:05.212Z,10.56
2022-10-03T04:59:03.829Z,10.56
2022-10-03T05:00:03.985Z,10.56
2022-10-03T05:01:04.017Z,10.56
2022-10-03T05:02:04.224Z,10.56
2022-10-03T05:03:04.139Z,10.56
2022-10-03T05:04:04.222Z,10.56
2022-10-03T05:05:04.226Z,10.56
2022-10-03T05:06:04.382Z,10.56
2022-10-03T05:07:04.477Z,10.56
2022-10-03T05:08:04.495Z,10.62
2022-10-03T05:09:03.586Z,10.62
2022-10-03T05:10:06.584Z,10.62
2022-10-03T05:11:03.755Z,10.62
2022-10-03T05:12:03.752Z,10.62
2022-10-03T05:13:03.750Z,10.62
2022-10-03T05:14:03.824Z,10.62
2022-10-03T05:15:03.906Z,10.62
2022-10-03T05:16:04.002Z,10.62
2022-10-03T05:17:03.985Z,10.62
2022-10-03T05:18:04.066Z,10.62
2022-10-03T05:19:04.153Z,10.62
2022-10-03T05:20:03.984Z,10.62
2022-10-03T05:21:03.983Z,10.69
2022-10-03T05:22:04.074Z,10.62
2022-10-03T05:23:03.985Z,10.69
2022-10-03T05:24:04.072Z,10.62
2022-10-03T05:25:04.014Z,10.62
2022-10-03T05:26:23.448Z,10.69
2022-10-03T05:27:04.473Z,10.69
2022-10-03T05:28:03.698Z,10.69
2022-10-03T05:29:03.667Z,10.69
2022-10-03T05:30:03.666Z,10.69
2022-10-03T05:31:03.762Z,10.69
2022-10-03T05:32:03.810Z,10.69
2022-10-03T05:33:07.776Z,10.69
2022-10-03T05:34:03.912Z,10.69
2022-10-03T05:35:03.902Z,10.69
2022-10-03T05:36:03.818Z,10.69
2022-10-03T05:37:03.997Z,10.69
2022-10-03T05:38:03.990Z,10.69
2022-10-03T05:39:03.979Z,10.69
2022-10-03T05:40:04.075Z,10.69
2022-10-03T05:41:03.910Z,10.69
2022-10-03T05:42:18.147Z,10.75
2022-10-03T05:43:03.978Z,10.75
2022-10-03T05:44:04.069Z,10.75
2022-10-03T05:45:04.079Z,10.75
2022-10-03T05:46:04.024Z,10.75
2022-10-03T05:47:03.983Z,10.75
2022-10-03T05:48:03.985Z,10.81
2022-10-03T05:49:04.081Z,10.81
2022-10-03T05:50:08.007Z,10.81
2022-10-03T05:51:03.983Z,10.81
2022-10-03T05:52:04.146Z,10.75
2022-10-03T05:53:04.063Z,10.81
2022-10-03T05:54:04.009Z,10.81
2022-10-03T05:55:03.507Z,10.81
2022-10-03T05:56:03.495Z,10.81
2022-10-03T05:57:03.509Z,10.81
2022-10-03T05:58:03.678Z,10.81
2022-10-03T05:59:03.668Z,10.81
2022-10-03T06:00:04.111Z,10.81
2022-10-03T06:01:04.223Z,10.81
2022-10-03T06:02:04.255Z,10.81
2022-10-03T06:03:04.342Z,10.88
2022-10-03T06:04:06.035Z,10.88
2022-10-03T06:05:04.326Z,10.88
2022-10-03T06:06:04.397Z,10.88
2022-10-03T06:07:04.308Z,10.88
2022-10-03T06:08:04.393Z,10.88
2022-10-03T06:09:04.416Z,10.88
2022-10-03T06:10:04.507Z,10.94
2022-10-03T06:11:04.391Z,10.94
2022-10-03T06:12:04.398Z,10.94
2022-10-03T06:13:04.467Z,10.94
2022-10-03T06:14:04.398Z,10.94
2022-10-03T06:15:03.582Z,11.00
2022-10-03T06:16:03.702Z,11.00
2022-10-03T06:17:03.674Z,11.00
2022-10-03T06:18:03.502Z,11.00
2022-10-03T06:19:03.663Z,11.06
2022-10-03T06:20:03.663Z,11.06
2022-10-03T06:21:03.825Z,11.06
2022-10-03T06:22:04.006Z,11.06
2022-10-03T06:23:06.050Z,11.06
2022-10-03T06:24:04.079Z,11.06
2022-10-03T06:25:04.070Z,11.06
2022-10-03T06:26:04.314Z,11.12
2022-10-03T06:27:04.304Z,11.12
2022-10-03T06:28:04.291Z,11.12
2022-10-03T06:29:04.474Z,11.19
2022-10-03T06:30:04.379Z,11.19
2022-10-03T06:31:03.654Z,11.19
2022-10-03T06:32:03.506Z,11.19
2022-10-03T06:33:03.671Z,11.25
2022-10-03T06:34:03.581Z,11.25
2022-10-03T06:35:03.665Z,11.25
2022-10-03T06:36:03.661Z,11.25
2022-10-03T06:37:03.817Z,11.25
2022-10-03T06:38:03.818Z,11.31
2022-10-03T06:39:03.745Z,11.31
2022-10-03T06:40:07.544Z,11.31
2022-10-03T06:41:03.951Z,11.31
2022-10-03T06:42:04.008Z,11.31
2022-10-03T06:43:03.905Z,11.31
2022-10-03T06:44:03.829Z,11.38
2022-10-03T06:45:03.826Z,11.38
2022-10-03T06:46:04.043Z,11.38
2022-10-03T06:47:04.782Z,11.38
2022-10-03T06:48:03.987Z,11.38
2022-10-03T06:49:03.898Z,11.38
2022-10-03T06:50:03.998Z,11.38
2022-10-03T06:51:03.908Z,11.38
2022-10-03T06:52:03.988Z,11.38
2022-10-03T06:53:04.071Z,11.38
2022-10-03T06:54:04.168Z,11.38
2022-10-03T06:55:04.313Z,11.38
2022-10-03T06:56:04.382Z,11.44
2022-10-03T06:57:04.459Z,11.44
2022-10-03T06:58:04.409Z,11.44
2022-10-03T06:59:04.546Z,11.50
2022-10-03T07:00:04.461Z,11.50
2022-10-03T07:01:04.502Z,11.50
2022-10-03T07:02:03.612Z,11.50
2022-10-03T07:03:03.576Z,11.50
2022-10-03T07:04:03.511Z,11.50
2022-10-03T07:05:03.596Z,11.50
2022-10-03T07:06:03.587Z,11.56
2022-10-03T07:07:03.510Z,11.56
2022-10-03T07:08:03.591Z,11.62
2022-10-03T07:09:03.580Z,11.69
2022-10-03T07:10:03.742Z,11.69
2022-10-03T07:11:03.828Z,11.75
2022-10-03T07:12:03.903Z,11.75
2022-10-03T07:13:03.988Z,11.75
2022-10-03T07:14:03.989Z,11.81
2022-10-03T07:15:04.070Z,11.81
2022-10-03T07:16:25.248Z,11.88
2022-10-03T07:17:04.131Z,11.88
2022-10-03T07:18:04.226Z,11.94
2022-10-03T07:19:04.233Z,11.94
2022-10-03T07:20:04.218Z,12.00
2022-10-03T07:21:04.310Z,12.00
2022-10-03T07:22:04.229Z,12.06
2022-10-03T07:23:04.305Z,12.06
2022-10-03T07:24:04.418Z,12.12
2022-10-03T07:25:04.389Z,12.19
2022-10-03T07:26:04.378Z,12.25
2022-10-03T07:27:04.409Z,12.25
2022-10-03T07:28:04.493Z,12.31
2022-10-03T07:29:03.663Z,12.38
2022-10-03T07:30:03.585Z,12.38
2022-10-03T07:31:03.760Z,12.44
2022-10-03T07:32:03.752Z,12.44
2022-10-03T07:33:03.751Z,12.50
2022-10-03T07:34:03.911Z,12.50
2022-10-03T07:35:03.919Z,12.50
2022-10-03T07:36:03.831Z,12.56
2022-10-03T07:37:03.766Z,12.56
2022-10-03T07:38:03.819Z,12.56
2022-10-03T07:39:03.994Z,12.62
2022-10-03T07:40:03.902Z,12.62
2022-10-03T07:41:03.990Z,12.69
2022-10-03T07:42:04.159Z,12.62
2022-10-03T07:43:04.064Z,12.62
2022-10-03T07:44:04.160Z,12.62
2022-10-03T07:45:04.160Z,12.62
2022-10-03T07:46:04.338Z,12.62
2022-10-03T07:47:04.320Z,12.62
2022-10-03T07:48:04.396Z,12.62
2022-10-03T07:49:04.473Z,12.62
2022-10-03T07:50:04.473Z,12.69
2022-10-03T07:51:03.514Z,12.69
2022-10-03T07:52:03.591Z,12.69
2022-10-03T07:53:03.586Z,12.69
2022-10-03T07:54:03.677Z,12.69
2022-10-03T07:55:03.666Z,12.69
2022-10-03T07:56:07.340Z,12.69
2022-10-03T07:57:03.761Z,12.69
2022-10-03T07:58:03.758Z,12.69
2022-10-03T07:59:03.747Z,12.75
2022-10-03T08:00:03.669Z,12.75
2022-10-03T08:01:03.753Z,12.75
2022-10-03T08:02:03.823Z,12.75
2022-10-03T08:03:04.044Z,12.81
2022-10-03T08:04:04.205Z,12.81
2022-10-03T08:05:04.147Z,12.88
2022-10-03T08:06:04.321Z,12.94
2022-10-03T08:07:04.358Z,13.06
2022-10-03T08:08:04.302Z,13.12
2022-10-03T08:09:04.397Z,13.19
2022-10-03T08:10:04.386Z,13.31
2022-10-03T08:11:03.497Z,13.38
2022-10-03T08:12:03.500Z,13.44
2022-10-03T08:13:03.751Z,13.50
2022-10-03T08:14:03.602Z,13.62
2022-10-03T08:15:03.670Z,13.69
2022-10-03T08:16:03.688Z,13.75
2022-10-03T08:17:04.468Z,13.81
2022-10-03T08:18:03.590Z,13.88
2022-10-03T08:19:06.181Z,13.94
2022-10-03T08:20:03.778Z,14.00
2022-10-03T08:21:03.660Z,14.06
2022-10-03T08:22:03.675Z,14.06
2022-10-03T08:23:03.666Z,14.06
2022-10-03T08:24:03.995Z,14.12
2022-10-03T08:25:04.159Z,14.19
2022-10-03T08:26:04.221Z,14.19
2022-10-03T08:27:04.392Z,14.25
2022-10-03T08:28:04.346Z,14.25
2022-10-03T08:29:04.415Z,14.31
2022-10-03T08:30:03.678Z,14.31
2022-10-03T08:31:03.557Z,14.38
2022-10-03T08:32:03.507Z,14.38
2022-10-03T08:33:03.606Z,14.38
2022-10-03T08:34:03.435Z,14.44
2022-10-03T08:35:03.589Z,14.44
2022-10-03T08:36:03.741Z,14.44
2022-10-03T08:37:03.663Z,14.44
2022-10-03T08:38:03.821Z,14.50
2022-10-03T08:39:03.825Z,14.50
2022-10-03T08:40:03.939Z,14.50
2022-10-03T08:41:04.089Z,14.56
2022-10-03T08:42:04.003Z,14.56
2022-10-03T08:43:03.997Z,14.62
2022-10-03T08:44:04.061Z,14.62
2022-10-03T08:45:04.068Z,14.62
2022-10-03T08:46:04.221Z,14.62
2022-10-03T08:47:04.088Z,14.62
2022-10-03T08:48:03.997Z,14.69
2022-10-03T08:49:04.076Z,14.69
2022-10-03T08:50:05.636Z,14.69
2022-10-03T08:51:04.069Z,14.69
2022-10-03T08:52:04.238Z,14.69
2022-10-03T08:53:04.140Z,14.62
2022-10-03T08:54:04.150Z,14.62
2022-10-03T08:55:04.219Z,14.62
2022-10-03T08:56:04.384Z,14.62
2022-10-03T08:57:04.308Z,14.62
2022-10-03T08:58:04.393Z,14.62
2022-10-03T08:59:04.466Z,14.56
2022-10-03T09:00:04.463Z,14.56
2022-10-03T09:01:03.587Z,14.56
2022-10-03T09:02:03.682Z,14.56
2022-10-03T09:03:31.790Z,14.56
2022-10-03T09:04:03.750Z,14.50
2022-10-03T09:05:03.742Z,14.50
2022-10-03T09:06:03.909Z,14.50
2022-10-03T09:07:17.810Z,14.50
2022-10-03T09:08:03.976Z,14.50
2022-10-03T09:09:03.984Z,14.50
2022-10-03T09:10:04.147Z,14.50
2022-10-03T09:11:04.142Z,14.50
2022-10-03T09:12:04.307Z,14.44
2022-10-03T09:13:04.300Z,14.38
2022-10-03T09:14:04.396Z,14.38
2022-10-03T09:15:04.338Z,14.44
2022-10-03T09:16:04.343Z,14.44
2022-10-03T09:17:04.306Z,14.44
2022-10-03T09:18:04.383Z,14.50
2022-10-03T09:19:04.408Z,14.50
2022-10-03T09:20:04.388Z,14.50
2022-10-03T09:21:04.392Z,14.50
2022-10-03T09:22:03.501Z,14.50
2022-10-03T09:23:03.582Z,14.50
2022-10-03T09:24:03.577Z,14.50
2022-10-03T09:25:03.666Z,14.50
2022-10-03T09:26:03.662Z,14.50
2022-10-03T09:27:03.770Z,14.50
2022-10-03T09:28:03.880Z,14.50
2022-10-03T09:29:03.824Z,14.50
2022-10-03T09:30:03.917Z,14.56
2022-10-03T09:31:04.188Z,14.56
2022-10-03T09:32:03.922Z,14.56
2022-10-03T09:33:04.069Z,14.56
2022-10-03T09:34:04.140Z,14.56
2022-10-03T09:35:07.133Z,14.56
2022-10-03T09:36:04.150Z,14.56
2022-10-03T09:37:04.225Z,14.56
2022-10-03T09:38:04.136Z,14.50
2022-10-03T09:39:04.223Z,14.50
2022-10-03T09:40:04.146Z,14.50
2022-10-03T09:41:04.141Z,14.50
2022-10-03T09:42:04.223Z,14.50
2022-10-03T09:43:04.232Z,14.56
2022-10-03T09:44:04.319Z,14.50
2022-10-03T09:45:04.390Z,14.50
2022-10-03T09:46:04.299Z,14.50
2022-10-03T09:47:04.541Z,14.50
2022-10-03T09:48:04.558Z,14.56
2022-10-03T09:49:04.467Z,14.56
2022-10-03T09:50:04.468Z,14.62
2022-10-03T09:51:04.460Z,14.62
2022-10-03T09:52:08.210Z,14.69
2022-10-03T09:53:03.583Z,14.69
2022-10-03T09:54:03.754Z,14.75
2022-10-03T09:55:03.670Z,14.75
2022-10-03T09:56:03.820Z,14.81
2022-10-03T09:57:03.774Z,14.88
2022-10-03T09:58:03.831Z,14.81
2022-10-03T09:59:03.991Z,14.88
2022-10-03T10:00:03.982Z,14.94
2022-10-03T10:01:04.042Z,14.94
2022-10-03T10:02:04.100Z,15.00
2022-10-03T10:03:04.151Z,15.00
2022-10-03T10:04:04.158Z,15.00
2022-10-03T10:05:04.219Z,15.00
2022-10-03T10:06:04.299Z,15.00
2022-10-03T10:07:04.306Z,15.00
2022-10-03T10:08:04.458Z,15.06
2022-10-03T10:09:03.501Z,15.06
2022-10-03T10:10:03.514Z,15.06
2022-10-03T10:11:03.507Z,15.06
2022-10-03T10:12:03.496Z,15.06
2022-10-03T10:13:03.506Z,15.12
2022-10-03T10:14:07.464Z,15.12
2022-10-03T10:15:03.661Z,15.12
2022-10-03T10:16:03.893Z,15.12
2022-10-03T10:17:03.765Z,15.12
2022-10-03T10:18:03.759Z,15.12
2022-10-03T10:19:03.750Z,15.12
2022-10-03T10:20:03.746Z,15.12
2022-10-03T10:21:03.820Z,15.12
2022-10-03T10:22:03.830Z,15.12
2022-10-03T10:23:03.904Z,15.12
2022-10-03T10:24:03.908Z,15.12
2022-10-03T10:25:04.232Z,15.12
2022-10-03T10:26:04.224Z,15.12
2022-10-03T10:27:04.300Z,15.06
2022-10-03T10:28:04.551Z,15.06
2022-10-03T10:29:04.468Z,15.06
2022-10-03T10:30:04.545Z,15.06
2022-10-03T10:31:04.534Z,15.06
2022-10-03T10:32:03.585Z,15.00
2022-10-03T10:33:03.602Z,15.00
2022-10-03T10:34:03.685Z,15.00
2022-10-03T10:35:03.680Z,15.06
2022-10-03T10:36:03.831Z,15.06
2022-10-03T10:37:03.825Z,15.06
2022-10-03T10:38:03.995Z,15.19
2022-10-03T10:39:03.997Z,15.19
2022-10-03T10:40:03.914Z,15.25
2022-10-03T10:41:03.942Z,15.31
2022-10-03T10:42:04.066Z,15.31
2022-10-03T10:43:04.064Z,15.38
2022-10-03T10:44:03.988Z,15.44
2022-10-03T10:45:04.145Z,15.50
2022-10-03T10:46:03.986Z,15.50
2022-10-03T10:47:04.197Z,15.56
2022-10-03T10:48:04.069Z,15.56
2022-10-03T10:49:04.209Z,15.56
2022-10-03T10:50:04.187Z,15.56
2022-10-03T10:51:04.307Z,15.56
2022-10-03T10:52:04.309Z,15.56
2022-10-03T10:53:04.465Z,15.50
2022-10-03T10:54:03.512Z,15.50
2022-10-03T10:55:03.591Z,15.50
2022-10-03T10:56:03.746Z,15.44
2022-10-03T10:57:03.825Z,15.44
2022-10-03T10:58:03.824Z,15.44
2022-10-03T10:59:03.823Z,15.38
2022-10-03T11:00:03.903Z,15.38
2022-10-03T11:01:03.973Z,15.38
2022-10-03T11:02:03.906Z,15.31
2022-10-03T11:03:03.820Z,15.31
2022-10-03T11:04:03.748Z,15.31
2022-10-03T11:05:04.049Z,15.25
2022-10-03T11:06:03.906Z,15.25
2022-10-03T11:07:03.994Z,15.25
2022-10-03T11:08:03.987Z,15.25
2022-10-03T11:09:04.005Z,15.25
2022-10-03T11:10:04.070Z,15.31
2022-10-03T11:11:04.077Z,15.31
2022-10-03T11:12:04.308Z,15.31
2022-10-03T11:13:04.224Z,15.31
2022-10-03T11:14:04.319Z,15.38
2022-10-03T11:15:04.311Z,15.38
2022-10-03T11:16:04.438Z,15.38
2022-10-03T11:17:04.233Z,15.44
2022-10-03T11:18:04.386Z,15.44
2022-10-03T11:19:04.471Z,15.50
2022-10-03T11:20:04.378Z,15.56
2022-10-03T11:21:03.508Z,15.62
2022-10-03T11:22:03.503Z,15.62
2022-10-03T11:23:04.795Z,15.69
2022-10-03T11:24:03.516Z,15.69
2022-10-03T11:25:03.665Z,15.69
2022-10-03T11:26:03.674Z,15.75
2022-10-03T11:27:03.576Z,15.75
2022-10-03T11:28:03.722Z,15.75
2022-10-03T11:29:03.826Z,15.81
2022-10-03T11:30:03.755Z,15.81
2022-10-03T11:31:03.765Z,15.81
2022-10-03T11:32:03.837Z,15.81
2022-10-03T11:33:03.746Z,15.81
2022-10-03T11:34:03.826Z,15.75
2022-10-03T11:35:03.993Z,15.75
2022-10-03T11:36:03.910Z,15.75
2022-10-03T11:37:04.389Z,15.75
2022-10-03T11:38:04.477Z,15.69
2022-10-03T11:39:04.559Z,15.69
2022-10-03T11:40:04.389Z,15.69
2022-10-03T11:41:04.498Z,15.62
2022-10-03T11:42:03.585Z,15.62
2022-10-03T11:43:03.743Z,15.56
2022-10-03T11:44:03.745Z,15.56
2022-10-03T11:45:03.743Z,15.56
2022-10-03T11:46:03.790Z,15.56
2022-10-03T11:47:03.741Z,15.56
2022-10-03T11:48:03.754Z,15.56
2022-10-03T11:49:03.663Z,15.56
2022-10-03T11:50:04.161Z,15.56
2022-10-03T11:51:04.142Z,15.56
2022-10-03T11:52:04.229Z,15.56
2022-10-03T11:53:04.382Z,15.56
2022-10-03T11:54:26.573Z,15.56
2022-10-03T11:55:04.552Z,15.62
2022-10-03T11:56:04.488Z,15.62
2022-10-03T11:57:04.388Z,15.62
2022-10-03T11:58:03.591Z,15.56
2022-10-03T11:59:03.830Z,15.56
2022-10-03T12:00:03.913Z,15.56
2022-10-03T12:01:03.907Z,15.56
2022-10-03T12:02:03.927Z,15.50
2022-10-03T12:03:03.955Z,15.50
2022-10-03T12:04:03.913Z,15.50
2022-10-03T12:05:03.910Z,15.50
2022-10-03T12:06:04.002Z,15.50
2022-10-03T12:07:03.983Z,15.50
2022-10-03T12:08:04.083Z,15.50
2022-10-03T12:09:04.159Z,15.50
2022-10-03T12:10:04.149Z,15.50
2022-10-03T12:11:04.224Z,15.50
2022-10-03T12:12:04.225Z,15.50
2022-10-03T12:13:04.224Z,15.50
2022-10-03T12:14:07.398Z,15.56
2022-10-03T12:15:04.348Z,15.56
2022-10-03T12:16:05.184Z,15.56
2022-10-03T12:17:04.466Z,15.56
2022-10-03T12:18:03.606Z,15.56
2022-10-03T12:19:03.752Z,15.56
2022-10-03T12:20:03.821Z,15.56
2022-10-03T12:21:03.905Z,15.56
2022-10-03T12:22:03.994Z,15.56
2022-10-03T12:23:03.998Z,15.56
2022-10-03T12:24:04.152Z,15.56
2022-10-03T12:25:04.073Z,15.56
2022-10-03T12:26:04.229Z,15.56
2022-10-03T12:27:04.229Z,15.56
2022-10-03T12:28:04.262Z,15.50
2022-10-03T12:29:04.234Z,15.50
2022-10-03T12:30:04.242Z,15.50
2022-10-03T12:31:04.424Z,15.50
2022-10-03T12:32:04.457Z,15.50
2022-10-03T12:33:04.469Z,15.44
2022-10-03T12:34:03.592Z,15.44
2022-10-03T12:35:03.583Z,15.44
2022-10-03T12:36:03.670Z,15.44
2022-10-03T12:37:03.672Z,15.44
2022-10-03T12:38:03.589Z,15.44
2022-10-03T12:39:03.509Z,15.44
2022-10-03T12:40:03.587Z,15.44
2022-10-03T12:41:03.671Z,15.44
2022-10-03T12:42:03.682Z,15.44
2022-10-03T12:43:03.706Z,15.44
2022-10-03T12:44:03.579Z,15.44
2022-10-03T12:45:03.673Z,15.44
2022-10-03T12:46:03.859Z,15.50
2022-10-03T12:47:03.870Z,15.56
2022-10-03T12:48:03.739Z,15.56
2022-10-03T12:49:03.742Z,15.56
2022-10-03T12:50:03.923Z,15.62
2022-10-03T12:51:03.828Z,15.69
2022-10-03T12:52:03.829Z,15.69
2022-10-03T12:53:04.002Z,15.75
2022-10-03T12:54:03.915Z,15.75
2022-10-03T12:55:03.916Z,15.81
2022-10-03T12:56:04.152Z,15.75
2022-10-03T12:57:04.070Z,15.75